Weather observations for the past three days for
Santa Maria Public Airport/Capt G Allan Hancock Field
Imperial (Metric)
Date Time (pdt) Wind (mph) Vis. (mi.) Weather Sky Cond. Temperature (ºF) Relative Humidity Wind Chill (°F) Heat Index (°F) Pressure Precipitation (in)
Air Dwpt 6 hour altimeter (in) sea level (mb) 1 hr 3 hr 6 hr
Max. Min.
07 20:51 W 8 8.00 Fair CLR 55 52 90% 30.03 1017.1
07 19:51 W 6 7.00 Fair CLR 55.9 52 87% 30.01 1016.6
07 18:51 NW 15 8.00 Fair CLR 59 53.1 81% 30.01 1016.3
07 17:51 W 16 9.00 Fair CLR 61 53.1 75% 30 1016.0
07 16:51 W 18 8.00 Fair CLR 63 54 71.1 62.1 73% 29.99 1015.9
07 15:51 W 17 9.00 Fair CLR 64 55 73% 29.99 1015.8
07 14:51 W 18 10.00 Fair CLR 66 55 68% 30.01 1016.3
07 13:51 NW 16 G 23 9.00 Fair CLR 66 55 68% 30.02 1016.8
07 12:51 NW 15 10.00 Fair CLR 66 55 68% 30.03 1017.0
07 11:51 NW 9 10.00 Fair CLR 70 55.9 61% 30.03 1017.0
07 10:51 Vrbl 3 10.00 Fair CLR 64.9 54 64.9 53.1 68% 30.04 1017.4
07 09:51 Calm 10.00 Partly Cloudy SCT009 61 53.1 75% 30.05 1017.8
07 08:51 Calm 9.00 Overcast OVC005 55 53.1 93% 30.05 1017.9
07 07:51 Calm 2.50 Fog/Mist OVC003 54 53.1 97% 30.05 1017.8
07 06:51 Calm 2.00 Fog/Mist OVC002 53.1 52 96% 30.04 1017.5
07 05:51 W 3 4.00 Fog/Mist OVC003 53.1 53.1 100% 30.03 1017.3
07 04:51 W 5 6.00 Fog/Mist OVC003 54 53.1 55 52 97% 30.04 1017.4
07 03:51 Calm 7.00 Overcast OVC004 54 53.1 97% 30.04 1017.5
07 02:51 W 3 8.00 Overcast OVC005 54 53.1 97% 30.05 1017.7
07 01:51 W 7 7.00 Overcast OVC006 54 53.1 97% 30.07 1018.3
07 00:51 NW 3 6.00 Fog/Mist BKN010 52 51.1 97% 30.08 1018.9
06 23:51 W 5 7.00 Fair CLR 54 53.1 97% 30.09 1019.0
06 22:51 W 9 8.00 Fair CLR 54 53.1 64.9 54 97% 30.09 1019.1
06 21:51 W 9 9.00 Fair CLR 55 53.1 93% 30.09 1019.1
06 20:51 W 10 10.00 Fair CLR 55.9 54 93% 30.08 1018.9
06 19:51 W 14 G 23 10.00 Fair CLR 57 53.1 87% 30.06 1018.2
06 18:51 W 16 10.00 Fair CLR 61 52 72% 30.05 1017.7
06 17:51 W 21 10.00 Fair and Breezy CLR 62.1 53.1 73% 30.05 1017.9
06 16:51 W 22 10.00 Fair and Breezy CLR 64.9 52 70 64.9 63% 30.05 1017.6
06 15:51 W 23 10.00 Fair and Breezy CLR 66 53.1 63% 30.05 1017.7
06 14:51 W 20 10.00 Fair CLR 66.9 54 63% 30.06 1018.3
06 13:51 NW 21 G 28 10.00 Fair and Breezy CLR 66.9 53.1 61% 30.07 1018.3
06 12:51 NW 22 10.00 Fair and Breezy CLR 68 53.1 59% 30.07 1018.5
06 11:51 W 17 0.00 Fair CLR 69.1 52 55% 30.08 1018.5
06 10:51 W 12 10.00 Fair CLR 69.1 51.1 69.1 46 53% 30.09 1018.9
06 09:51 W 6 10.00 Fair CLR 62.1 51.1 67% 30.09 1019.2
06 08:51 Vrbl 3 10.00 Fair CLR 57 51.1 81% 30.1 1019.4
06 07:51 Calm 10.00 Fair CLR 53.1 50 89% 30.11 1019.7
06 06:51 Calm 10.00 A Few Clouds FEW001 48 46.9 96% 30.09 1019.3
06 05:51 SE 5 10.00 A Few Clouds FEW000 46.9 46 97% 45 30.07 1018.6
06 04:51 SE 3 10.00 Fair CLR 46.9 46 53.1 46.9 97% 30.08 1018.7
06 03:51 S 3 10.00 Fair CLR 48 46.9 96% 30.07 1018.6
06 02:51 SE 3 10.00 Fair CLR 48.9 48 97% 30.08 1018.7
06 01:51 Calm 10.00 Fair CLR 50 48.9 96% 30.08 1018.8
06 00:51 Calm 10.00 Fair CLR 51.1 50 96% 30.09 1019.0
05 23:51 Calm 10.00 Fair CLR 52 51.1 97% 30.07 1018.5
05 22:51 Calm 10.00 Fair CLR 53.1 51.1 64 53.1 93% 30.07 1018.4
05 21:51 W 5 10.00 Fair CLR 54 51.1 90% 30.06 1018.0
05 20:51 W 10 10.00 Fair CLR 55 52 90% 30.04 1017.3
05 19:51 W 14 10.00 Fair CLR 57 51.1 81% 30.01 1016.3
05 18:51 W 16 10.00 Partly Cloudy SCT040 59 50 72% 29.99 1015.8
05 17:51 W 17 G 25 10.00 Partly Cloudy SCT040 63 50 63% 29.99 1015.6
05 16:51 W 18 10.00 Fair CLR 64 51.1 66 62.1 63% 29.98 1015.4
05 15:51 W 21 10.00 Partly Cloudy and Breezy FEW050 SCT100 64 48.9 58% 29.99 1015.6
05 14:51 W 20 9.00 Mostly Cloudy SCT050 BKN100 64.9 48 54% 29.99 1015.9
05 13:51 W 22 8.00 Partly Cloudy and Breezy FEW050 SCT110 64.9 46.9 52% 30.01 1016.3
05 12:51 W 18 G 24 10.00 Mostly Cloudy SCT030 BKN200 66 46.9 50% 30.01 1016.2
05 11:51 W 14 10.00 Mostly Cloudy SCT035 BKN200 64.9 48 54% 30.01 1016.4
05 10:51 W 13 G 20 10.00 Partly Cloudy SCT016 SCT100 64 46.9 64 48.9 54% 30 1016.2
05 09:51 NW 8 10.00 Partly Cloudy SCT160 SCT100 61 46.9 60% 30 1016.1
05 08:51 W 5 10.00 Partly Cloudy SCT016 57 48.9 74% 30 1016.1
05 07:51 Calm 10.00 A Few Clouds FEW045 FEW100 54 50 87% 29.99 1015.8
05 06:51 Calm 10.00 Partly Cloudy FEW045 SCT070 50 46.9 89% 29.99 1015.7
05 05:51 Calm 10.00 Mostly Cloudy BKN048 BKN070 50 48 93% 29.98 1015.4
05 04:51 Calm 10.00 Overcast BKN026 OVC090 51.1 48 53.1 48.9 89% 29.98 1015.5
05 03:51 Calm 10.00 Mostly Cloudy SCT024 BKN075 50 48 93% 29.97 1015.2
05 02:51 Calm 10.00 Mostly Cloudy BKN090 52 48.9 89% 29.98 1015.4
05 01:51 Calm 10.00 Overcast SCT024 BKN034 OVC080 51.1 48 89% 30 1016.0
05 00:51 SE 3 10.00 Partly Cloudy SCT080 51.1 48 89% 30 1016.2
04 23:51 Calm 10.00 Fair CLR 51.1 48.9 92% 30 1016.1
04 22:51 W 3 10.00 Partly Cloudy SCT085 53.1 50 64 53.1 89% 30 1016.1
04 21:51 W 5 10.00 Mostly Cloudy SCT020 BKN080 54 50 87% 30 1016.1
Date Time (pdt) Wind (mph) Vis. (mi.) Weather Sky Cond. Air Dwpt Max. Min. Relative Humidity Wind Chill (°F) Heat Index (°F) altimeter (in) sea level (mb) 1 hr 3 hr 6 hr
6 hour
Temperature (ºF) Pressure Precipitation (in)